createdAt,value
2019-01-02T00:00:02.823Z,1009.26
2019-01-02T00:01:13.905Z,1009.17
2019-01-02T00:02:23.384Z,1009.22
2019-01-02T00:03:33.345Z,1009.27
2019-01-02T00:04:43.059Z,1009.23
2019-01-02T00:05:54.321Z,1009.27
2019-01-02T00:07:04.367Z,1009.25
2019-01-02T00:08:14.335Z,1009.37
2019-01-02T00:09:24.121Z,1009.18
2019-01-02T00:10:35.252Z,1009.07
2019-01-02T00:11:45.223Z,1009.17
2019-01-02T00:12:54.961Z,1009.27
2019-01-02T00:14:06.463Z,1009.23
2019-01-02T00:15:16.634Z,1009.21
2019-01-02T00:16:26.609Z,1009.19
2019-01-02T00:17:36.581Z,1009.6
2019-01-02T00:18:48.199Z,1009.28
2019-01-02T00:19:58.181Z,1009.62
2019-01-02T00:21:07.907Z,1009.41
2019-01-02T00:22:18.138Z,1009.14
2019-01-02T00:23:29.788Z,1009.3
2019-01-02T00:24:39.769Z,1009.53
2019-01-02T00:25:49.748Z,1009.25
2019-01-02T00:27:00.033Z,1009.37
2019-01-02T00:28:11.038Z,1009.41
2019-01-02T00:29:20.761Z,1009.53
2019-01-02T00:30:30.747Z,1009.46
2019-01-02T00:31:41.561Z,1009.54
2019-01-02T00:32:52.496Z,1009.38
2019-01-02T00:34:02.479Z,1009.46
2019-01-02T00:35:12.519Z,1009.46
2019-01-02T00:36:24.046Z,1009.5
2019-01-02T00:37:34.028Z,1009.43
2019-01-02T00:38:43.996Z,1009.41
2019-01-02T00:39:54.879Z,1009.53
2019-01-02T00:41:05.963Z,1009.94
2019-01-02T00:42:15.941Z,1009.51
2019-01-02T00:43:25.661Z,1009.46
2019-01-02T00:44:37.182Z,1009.58
2019-01-02T00:45:47.149Z,1009.62
2019-01-02T00:46:56.899Z,1009.56
2019-01-02T00:48:06.376Z,1009.49
2019-01-02T00:49:17.631Z,1009.62
2019-01-02T00:50:27.347Z,1009.76
2019-01-02T00:51:37.341Z,1009.42
2019-01-02T00:52:48.931Z,1009.54
2019-01-02T00:53:59.196Z,1009.64
2019-01-02T00:55:08.911Z,1009.79
2019-01-02T00:56:19.221Z,1009.62
2019-01-02T00:57:30.322Z,1009.66
2019-01-02T00:58:40.292Z,1009.73
2019-01-02T00:59:50.024Z,1009.83
2019-01-02T01:01:01.273Z,1009.69
2019-01-02T01:02:11.253Z,1009.92
2019-01-02T01:03:21.208Z,1009.86
2019-01-02T01:04:32.686Z,1009.84
2019-01-02T01:05:42.407Z,1009.73
2019-01-02T01:06:51.872Z,1009.85
2019-01-02T01:08:03.011Z,1009.98
2019-01-02T01:09:13.725Z,1009.84
2019-01-02T01:10:23.458Z,1009.91
2019-01-02T01:11:33.184Z,1009.84
2019-01-02T01:12:44.781Z,1009.76
2019-01-02T01:13:54.880Z,1009.86
2019-01-02T01:15:04.601Z,1009.79
2019-01-02T01:16:15.929Z,1009.94
2019-01-02T01:17:26.381Z,1009.9
2019-01-02T01:18:36.104Z,1009.78
2019-01-02T01:19:46.070Z,1009.78
2019-01-02T01:20:57.560Z,1009.96
2019-01-02T01:22:07.303Z,1009.74
2019-01-02T01:23:17.030Z,1009.78
2019-01-02T01:24:27.394Z,1009.8
2019-01-02T01:25:38.227Z,1010.06
2019-01-02T01:26:47.690Z,1009.85
2019-01-02T01:27:57.650Z,1009.9
2019-01-02T01:29:07.620Z,1010.01
2019-01-02T01:30:19.409Z,1009.91
2019-01-02T01:31:29.376Z,1009.93
2019-01-02T01:32:39.354Z,1009.87
2019-01-02T01:33:49.118Z,1009.93
2019-01-02T01:35:00.236Z,1010.26
2019-01-02T01:36:10.322Z,1010.07
2019-01-02T01:37:20.046Z,1010.06
2019-01-02T01:38:30.028Z,1009.9
2019-01-02T01:39:40.060Z,1010.01
2019-01-02T01:40:51.495Z,1010.12
2019-01-02T01:42:01.473Z,1009.9
2019-01-02T01:43:11.450Z,1009.93
2019-01-02T01:44:21.955Z,1010.03
2019-01-02T01:45:33.452Z,1010.36
2019-01-02T01:46:43.166Z,1010.05
2019-01-02T01:47:53.154Z,1009.96
2019-01-02T01:49:02.875Z,1010.19
2019-01-02T01:50:14.325Z,1009.98
2019-01-02T01:51:24.038Z,1010.48
2019-01-02T01:52:33.751Z,1010.12
2019-01-02T01:53:43.700Z,1010.23
2019-01-02T01:54:55.065Z,1009.98
2019-01-02T01:56:05.042Z,1009.97
2019-01-02T01:57:14.769Z,1010.04
2019-01-02T01:58:24.744Z,1010.04
2019-01-02T01:59:36.406Z,1010.25
2019-01-02T02:00:46.785Z,1010.05
2019-01-02T02:01:56.746Z,1010.3
2019-01-02T02:03:06.477Z,1009.98
2019-01-02T02:04:17.162Z,1010.15
2019-01-02T02:05:27.954Z,1010.13
2019-01-02T02:06:37.931Z,1010.17
2019-01-02T02:07:47.893Z,1010.08
2019-01-02T02:08:58.568Z,1010.18
2019-01-02T02:10:09.466Z,1009.98
2019-01-02T02:11:19.433Z,1010.25
2019-01-02T02:12:29.158Z,1010.12
2019-01-02T02:13:39.113Z,1010.12
2019-01-02T02:14:50.485Z,1010.21
2019-01-02T02:16:00.212Z,1009.86
2019-01-02T02:17:09.934Z,1010.11
2019-01-02T02:18:19.898Z,1010.15
2019-01-02T02:19:31.412Z,1010.18
2019-01-02T02:20:41.371Z,1010.18
2019-01-02T02:21:51.339Z,1010.21
2019-01-02T02:23:01.048Z,1010.27
2019-01-02T02:24:12.232Z,1010.14
2019-01-02T02:25:21.954Z,1010.06
2019-01-02T02:26:31.926Z,1010.13
2019-01-02T02:27:41.642Z,1010.26
2019-01-02T02:28:53.059Z,1010.2
2019-01-02T02:30:03.379Z,1010.02
2019-01-02T02:31:13.113Z,1010.38
2019-01-02T02:32:24.485Z,1010.36
2019-01-02T02:33:34.467Z,1010.24
2019-01-02T02:34:45.486Z,1010.25
2019-01-02T02:35:55.190Z,1010.23
2019-01-02T02:37:05.856Z,1010.51
2019-01-02T02:38:15.856Z,1010.11
2019-01-02T02:39:27.623Z,1010.25
2019-01-02T02:40:38.986Z,1010.48
2019-01-02T02:41:48.681Z,1010.4
2019-01-02T02:42:59.794Z,1010.51
2019-01-02T02:44:10.137Z,1010.22
2019-01-02T02:45:21.672Z,1010.23
2019-01-02T02:46:33.518Z,1010.44
2019-01-02T02:47:43.496Z,1010.59
2019-01-02T02:48:55.018Z,1010.32
2019-01-02T02:50:06.550Z,1010.34
2019-01-02T02:51:16.736Z,1010.27
2019-01-02T02:52:28.000Z,1010.43
2019-01-02T02:53:37.732Z,1010.48
2019-01-02T02:54:48.713Z,1010.28
2019-01-02T02:55:58.734Z,1010.31
2019-01-02T02:57:09.787Z,1010.38
2019-01-02T02:58:19.516Z,1010.36
2019-01-02T02:59:30.356Z,1010.33
2019-01-02T03:00:41.769Z,1010.44
2019-01-02T03:01:53.128Z,1010.32
2019-01-02T03:03:04.747Z,1010.36
2019-01-02T03:04:14.477Z,1010.3
2019-01-02T03:05:25.579Z,1010.47
2019-01-02T03:06:35.293Z,1010.31
2019-01-02T03:07:49.903Z,1010.37
2019-01-02T03:09:01.139Z,1010.4
2019-01-02T03:10:10.872Z,1010.36
2019-01-02T03:11:22.271Z,1010.44
2019-01-02T03:12:33.149Z,1010.34
2019-01-02T03:13:43.449Z,1010.37
2019-01-02T03:14:54.393Z,1010.47
2019-01-02T03:16:04.363Z,1010.43
2019-01-02T03:17:15.523Z,1010.4
2019-01-02T03:18:26.741Z,1010.38
2019-01-02T03:19:37.692Z,1010.19
2019-01-02T03:20:48.910Z,1010.52
2019-01-02T03:21:58.879Z,1010.49
2019-01-02T03:23:10.033Z,1010.42
2019-01-02T03:24:21.255Z,1010.57
2019-01-02T03:25:31.915Z,1010.55
2019-01-02T03:26:42.990Z,1010.62
2019-01-02T03:27:53.049Z,1010.63
2019-01-02T03:29:04.547Z,1010.54
2019-01-02T03:30:15.504Z,1010.63
2019-01-02T03:31:27.212Z,1010.59
2019-01-02T03:32:38.657Z,1010.56
2019-01-02T03:33:50.455Z,1010.79
2019-01-02T03:35:00.389Z,1010.79
2019-01-02T03:36:10.312Z,1010.59
2019-01-02T03:37:20.237Z,1010.72
2019-01-02T03:38:29.919Z,1010.5
2019-01-02T03:39:39.851Z,1010.78
2019-01-02T03:40:49.536Z,1010.81
2019-01-02T03:41:59.244Z,1010.7
2019-01-02T03:43:09.205Z,1010.78
2019-01-02T03:44:18.901Z,1010.74
2019-01-02T03:45:28.866Z,1010.94
2019-01-02T03:46:38.806Z,1010.71
2019-01-02T03:47:48.489Z,1010.65
2019-01-02T03:48:58.427Z,1010.83
2019-01-02T03:50:07.610Z,1011.14
2019-01-02T03:51:17.310Z,1010.89
2019-01-02T03:52:26.983Z,1010.96
2019-01-02T03:53:36.399Z,1010.63
2019-01-02T03:54:46.075Z,1010.78
2019-01-02T03:55:55.273Z,1010.93
2019-01-02T03:57:05.227Z,1010.84
2019-01-02T03:58:14.684Z,1010.71
2019-01-02T03:59:24.270Z,1011.12
2019-01-02T04:00:33.695Z,1010.84
2019-01-02T04:01:43.655Z,1010.83
2019-01-02T04:02:53.089Z,1010.75
2019-01-02T04:04:03.038Z,1010.63
2019-01-02T04:05:12.960Z,1010.71
2019-01-02T04:06:22.649Z,1010.8
2019-01-02T04:07:32.341Z,1010.77
2019-01-02T04:08:42.269Z,1010.7
2019-01-02T04:09:51.942Z,1010.73
2019-01-02T04:11:01.623Z,1010.89
2019-01-02T04:12:11.317Z,1010.88
2019-01-02T04:13:21.006Z,1010.93
2019-01-02T04:14:30.961Z,1011.3
2019-01-02T04:15:40.913Z,1010.78
2019-01-02T04:16:50.598Z,1011.03
2019-01-02T04:18:00.545Z,1011.29
2019-01-02T04:19:10.490Z,1011.01
2019-01-02T04:20:20.181Z,1011.2
2019-01-02T04:21:30.119Z,1011.05
2019-01-02T04:22:40.082Z,1011.09
2019-01-02T04:23:49.529Z,1010.98
2019-01-02T04:24:58.963Z,1011.04
2019-01-02T04:26:08.897Z,1011.1
2019-01-02T04:27:18.595Z,1011.19
2019-01-02T04:28:28.531Z,1011.12
2019-01-02T04:29:38.220Z,1011.11
2019-01-02T04:30:47.915Z,1011.18
2019-01-02T04:31:57.850Z,1011.15
2019-01-02T04:33:07.545Z,1011.15
2019-01-02T04:34:16.980Z,1011.31
2019-01-02T04:35:26.924Z,1011.26
2019-01-02T04:36:36.895Z,1011.3
2019-01-02T04:37:46.829Z,1011.25
2019-01-02T04:38:56.771Z,1011.21
2019-01-02T04:40:06.711Z,1011.48
2019-01-02T04:41:18.077Z,1011.3
2019-01-02T04:42:27.254Z,1011.45
2019-01-02T04:43:37.183Z,1011.47
2019-01-02T04:44:46.640Z,1011.49
2019-01-02T04:45:56.585Z,1011.92
2019-01-02T04:47:06.259Z,1011.59
2019-01-02T04:48:15.928Z,1011.67
2019-01-02T04:49:25.604Z,1011.58
2019-01-02T04:50:35.294Z,1011.57
2019-01-02T04:51:45.244Z,1011.74
2019-01-02T04:52:55.183Z,1011.51
2019-01-02T04:54:04.875Z,1011.56
2019-01-02T04:55:14.821Z,1011.5
2019-01-02T04:56:24.770Z,1011.47
2019-01-02T04:57:34.713Z,1011.6
2019-01-02T04:58:44.653Z,1011.52
2019-01-02T04:59:54.588Z,1011.47
2019-01-02T05:01:04.688Z,1011.65
2019-01-02T05:02:14.679Z,1011.55
2019-01-02T05:03:24.620Z,1011.7
2019-01-02T05:04:34.567Z,1011.86
2019-01-02T05:05:44.500Z,1011.62
2019-01-02T05:06:54.430Z,1011.6
2019-01-02T05:08:04.109Z,1011.67
2019-01-02T05:09:13.786Z,1011.9
2019-01-02T05:10:23.720Z,1011.84
2019-01-02T05:11:33.421Z,1011.74
2019-01-02T05:12:43.377Z,1011.75
2019-01-02T05:13:53.075Z,1011.74
2019-01-02T05:15:03.013Z,1011.75
2019-01-02T05:16:12.959Z,1011.83
2019-01-02T05:17:22.886Z,1011.91
2019-01-02T05:18:32.825Z,1011.9
2019-01-02T05:19:42.777Z,1011.98
2019-01-02T05:20:52.458Z,1011.88
2019-01-02T05:22:02.190Z,1011.87
2019-01-02T05:23:12.131Z,1011.87
2019-01-02T05:24:21.818Z,1011.93
2019-01-02T05:25:31.762Z,1011.88
2019-01-02T05:26:41.488Z,1012.04
2019-01-02T05:27:51.160Z,1012
2019-01-02T05:29:01.140Z,1012.02
2019-01-02T05:30:11.369Z,1012
2019-01-02T05:31:20.937Z,1012.1
2019-01-02T05:32:30.630Z,1012.13
2019-01-02T05:33:40.575Z,1012.06
2019-01-02T05:34:50.275Z,1012.15
2019-01-02T05:36:00.215Z,1012.07
2019-01-02T05:37:09.889Z,1012.15
2019-01-02T05:38:19.839Z,1011.99
2019-01-02T05:39:29.539Z,1012.16
2019-01-02T05:40:39.239Z,1012.14
2019-01-02T05:41:48.919Z,1012.43
2019-01-02T05:42:58.851Z,1012.25
2019-01-02T05:44:08.795Z,1012.2
2019-01-02T05:45:18.727Z,1012.22
2019-01-02T05:46:28.657Z,1012.3
2019-01-02T05:47:38.352Z,1012.38
2019-01-02T05:48:48.281Z,1012.39
2019-01-02T05:49:57.981Z,1012.39
2019-01-02T05:51:07.933Z,1012.43
2019-01-02T05:52:17.867Z,1012.35
2019-01-02T05:53:27.555Z,1012.57
2019-01-02T05:54:37.499Z,1012.42
2019-01-02T05:55:47.501Z,1012.46
2019-01-02T05:56:57.457Z,1012.49
2019-01-02T05:58:07.391Z,1012.44
2019-01-02T05:59:16.875Z,1012.5
2019-01-02T06:00:26.828Z,1012.57
2019-01-02T06:01:42.332Z,1012.56
2019-01-02T06:02:51.768Z,1012.47
2019-01-02T06:04:01.702Z,1012.57
2019-01-02T06:05:11.141Z,1012.58
2019-01-02T06:06:21.083Z,1012.67
2019-01-02T06:07:31.043Z,1012.68
2019-01-02T06:08:40.971Z,1012.62
2019-01-02T06:09:50.914Z,1012.7
2019-01-02T06:11:00.853Z,1012.64
2019-01-02T06:12:10.534Z,1012.64
2019-01-02T06:13:20.218Z,1012.53
2019-01-02T06:14:30.161Z,1012.67
2019-01-02T06:15:39.847Z,1012.71
2019-01-02T06:16:49.532Z,1012.63
2019-01-02T06:17:59.463Z,1012.76
2019-01-02T06:19:09.157Z,1012.66
2019-01-02T06:20:19.088Z,1012.77
2019-01-02T06:21:28.792Z,1012.74
2019-01-02T06:22:38.481Z,1012.89
2019-01-02T06:23:48.191Z,1012.7
2019-01-02T06:24:58.130Z,1012.81
2019-01-02T06:26:08.146Z,1012.81
2019-01-02T06:27:17.837Z,1012.89
2019-01-02T06:28:27.763Z,1012.97
2019-01-02T06:29:37.703Z,1012.92
2019-01-02T06:30:47.685Z,1012.93
2019-01-02T06:31:57.372Z,1012.89
2019-01-02T06:33:07.069Z,1013.06
2019-01-02T06:34:16.751Z,1013.11
2019-01-02T06:35:26.704Z,1013.09
2019-01-02T06:36:36.139Z,1013.01
2019-01-02T06:37:46.073Z,1012.93
2019-01-02T06:38:56.016Z,1013.14
2019-01-02T06:40:05.967Z,1013.09
2019-01-02T06:41:15.668Z,1013.1
2019-01-02T06:42:25.356Z,1013.32
2019-01-02T06:43:35.294Z,1013.11
2019-01-02T06:44:45.226Z,1013.24
2019-01-02T06:45:54.908Z,1013.26
2019-01-02T06:47:04.598Z,1013.27
2019-01-02T06:48:14.541Z,1013.37
2019-01-02T06:49:24.494Z,1013.61
2019-01-02T06:50:34.426Z,1013.41
2019-01-02T06:51:44.358Z,1013.38
2019-01-02T06:52:53.536Z,1013.47
2019-01-02T06:54:03.460Z,1013.45
2019-01-02T06:55:13.411Z,1013.64
2019-01-02T06:56:23.100Z,1013.44
2019-01-02T06:57:32.800Z,1013.46
2019-01-02T06:58:42.502Z,1013.55
2019-01-02T06:59:53.107Z,1013.6
2019-01-02T07:01:03.042Z,1013.61
2019-01-02T07:02:12.974Z,1013.52
2019-01-02T07:03:22.678Z,1013.63
2019-01-02T07:04:32.372Z,1013.75
2019-01-02T07:05:42.058Z,1013.54
2019-01-02T07:06:51.748Z,1013.78
2019-01-02T07:08:01.774Z,1013.79
2019-01-02T07:09:11.459Z,1013.78
2019-01-02T07:10:21.412Z,1013.7
2019-01-02T07:11:31.362Z,1013.78
2019-01-02T07:12:41.325Z,1013.82
2019-01-02T07:13:51.024Z,1013.9
2019-01-02T07:15:00.958Z,1013.94
2019-01-02T07:16:10.905Z,1014.07
2019-01-02T07:17:20.356Z,1014.05
2019-01-02T07:18:30.059Z,1013.95
2019-01-02T07:19:40.007Z,1014.06
2019-01-02T07:20:49.461Z,1014.12
2019-01-02T07:21:59.405Z,1014.17
2019-01-02T07:23:08.864Z,1014.17
2019-01-02T07:24:18.815Z,1014.17
2019-01-02T07:25:28.764Z,1014.11
2019-01-02T07:26:38.246Z,1014.32
2019-01-02T07:27:48.808Z,1014.32
2019-01-02T07:28:58.748Z,1014.31
2019-01-02T07:30:08.438Z,1014.29
2019-01-02T07:31:18.373Z,1014.34
2019-01-02T07:32:28.316Z,1014.41
2019-01-02T07:33:38.007Z,1014.29
2019-01-02T07:34:47.686Z,1014.41
2019-01-02T07:35:57.639Z,1014.37
2019-01-02T07:37:07.591Z,1014.48
2019-01-02T07:38:17.534Z,1014.55
2019-01-02T07:39:27.474Z,1014.34
2019-01-02T07:40:37.170Z,1014.46
2019-01-02T07:41:46.854Z,1014.57
2019-01-02T07:42:56.541Z,1014.52
2019-01-02T07:44:06.500Z,1014.45
2019-01-02T07:45:16.189Z,1014.62
2019-01-02T07:46:26.149Z,1014.53
2019-01-02T07:47:35.597Z,1014.58
2019-01-02T07:48:45.536Z,1014.69
2019-01-02T07:49:55.228Z,1014.76
2019-01-02T07:51:05.174Z,1014.88
2019-01-02T07:52:14.870Z,1014.67
2019-01-02T07:53:24.593Z,1014.72
2019-01-02T07:54:34.532Z,1014.82
2019-01-02T07:55:44.471Z,1014.82
2019-01-02T07:56:54.164Z,1014.9
2019-01-02T07:58:04.152Z,1014.83
2019-01-02T07:59:13.843Z,1014.86
2019-01-02T08:00:23.791Z,1014.91
2019-01-02T08:01:33.497Z,1014.96
2019-01-02T08:02:43.442Z,1015.03
2019-01-02T08:03:53.140Z,1015.02
2019-01-02T08:05:03.084Z,1015.17
2019-01-02T08:06:13.027Z,1014.94
2019-01-02T08:07:22.958Z,1015.09
2019-01-02T08:08:32.648Z,1015.05
2019-01-02T08:09:42.585Z,1015.06
2019-01-02T08:10:52.276Z,1014.99
2019-01-02T08:12:01.465Z,1015.12
2019-01-02T08:13:11.408Z,1015.22
2019-01-02T08:14:21.124Z,1015.14
2019-01-02T08:15:31.052Z,1015.17
2019-01-02T08:16:40.743Z,1015.09
2019-01-02T08:17:50.680Z,1015.3
2019-01-02T08:19:00.655Z,1015.33
2019-01-02T08:20:10.611Z,1015.44
2019-01-02T08:21:20.056Z,1015.36
2019-01-02T08:22:29.745Z,1015.37
2019-01-02T08:23:39.429Z,1015.49
2019-01-02T08:24:49.110Z,1015.38
2019-01-02T08:25:58.805Z,1015.37
2019-01-02T08:27:08.247Z,1015.26
2019-01-02T08:28:17.933Z,1015.65
2019-01-02T08:29:27.877Z,1015.5
2019-01-02T08:30:37.818Z,1015.62
2019-01-02T08:31:47.502Z,1015.46
2019-01-02T08:32:57.193Z,1015.43
2019-01-02T08:34:06.642Z,1015.59
2019-01-02T08:35:16.592Z,1015.58
2019-01-02T08:36:26.542Z,1015.69
2019-01-02T08:37:36.479Z,1015.55
2019-01-02T08:38:46.172Z,1015.65
2019-01-02T08:39:56.111Z,1015.79
2019-01-02T08:41:05.540Z,1015.75
2019-01-02T08:42:15.763Z,1015.86
2019-01-02T08:43:25.216Z,1015.84
2019-01-02T08:44:35.153Z,1015.89
2019-01-02T08:45:45.106Z,1015.97
2019-01-02T08:46:54.809Z,1016
2019-01-02T08:48:04.749Z,1016.1
2019-01-02T08:49:14.698Z,1016.01
2019-01-02T08:50:24.631Z,1015.92
2019-01-02T08:51:34.584Z,1016.09
2019-01-02T08:52:44.292Z,1015.99
2019-01-02T08:53:54.258Z,1016.15
2019-01-02T08:55:03.940Z,1016.14
2019-01-02T08:56:13.889Z,1016.11
2019-01-02T08:57:23.815Z,1016.25
2019-01-02T08:58:33.765Z,1016.32
2019-01-02T08:59:43.714Z,1016.5
2019-01-02T09:00:53.403Z,1016.52
2019-01-02T09:02:03.337Z,1016.61
2019-01-02T09:03:13.285Z,1016.68
2019-01-02T09:04:22.975Z,1016.86
2019-01-02T09:05:32.934Z,1016.53
2019-01-02T09:06:42.629Z,1016.72
2019-01-02T09:07:52.597Z,1016.84
2019-01-02T09:09:02.553Z,1016.8
2019-01-02T09:10:12.952Z,1016.91
2019-01-02T09:11:22.381Z,1016.85
2019-01-02T09:12:32.322Z,1016.92
2019-01-02T09:13:42.272Z,1016.95
2019-01-02T09:14:52.263Z,1017.07
2019-01-02T09:16:01.957Z,1017.04
2019-01-02T09:17:11.652Z,1017.01
2019-01-02T09:18:21.598Z,1017.04
2019-01-02T09:19:31.532Z,1016.97
2019-01-02T09:20:41.239Z,1017.11
2019-01-02T09:21:51.192Z,1017.16
2019-01-02T09:23:00.897Z,1017.13
2019-01-02T09:24:10.596Z,1017.15
2019-01-02T09:25:20.287Z,1017.18
2019-01-02T09:26:30.231Z,1017.18
2019-01-02T09:27:40.171Z,1017.22
2019-01-02T09:28:50.112Z,1017.18
2019-01-02T09:29:59.803Z,1017.17
2019-01-02T09:31:09.754Z,1017.12
2019-01-02T09:32:19.697Z,1017.38
2019-01-02T09:33:29.621Z,1017.24
2019-01-02T09:34:39.566Z,1017.31
2019-01-02T09:35:50.822Z,1017.44
2019-01-02T09:37:00.931Z,1017.33
2019-01-02T09:38:10.879Z,1017.38
2019-01-02T09:39:20.567Z,1017.46
2019-01-02T09:40:30.535Z,1017.46
2019-01-02T09:41:40.776Z,1017.45
2019-01-02T09:42:50.569Z,1017.47
2019-01-02T09:44:00.522Z,1017.54
2019-01-02T09:45:10.220Z,1017.49
2019-01-02T09:46:20.194Z,1017.53
2019-01-02T09:47:30.588Z,1017.59
2019-01-02T09:48:40.659Z,1017.52
2019-01-02T09:49:50.616Z,1017.57
2019-01-02T09:51:00.677Z,1017.63
2019-01-02T09:52:10.623Z,1017.61
2019-01-02T09:53:20.063Z,1017.58
2019-01-02T09:54:30.001Z,1017.79
2019-01-02T09:55:39.685Z,1017.78
2019-01-02T09:56:49.635Z,1017.7
2019-01-02T09:57:59.578Z,1017.77
2019-01-02T09:59:09.277Z,1017.85
2019-01-02T10:00:19.211Z,1017.85
2019-01-02T10:01:29.162Z,1017.75
2019-01-02T10:02:38.855Z,1017.9
2019-01-02T10:03:48.807Z,1017.87
2019-01-02T10:04:58.753Z,1017.74
2019-01-02T10:06:08.712Z,1017.87
2019-01-02T10:07:18.405Z,1017.84
2019-01-02T10:08:28.361Z,1017.95
2019-01-02T10:09:38.045Z,1017.95
2019-01-02T10:10:47.479Z,1017.95
2019-01-02T10:11:57.423Z,1017.98
2019-01-02T10:13:07.358Z,1018.05
2019-01-02T10:14:17.053Z,1018.02
2019-01-02T10:15:26.778Z,1018.05
2019-01-02T10:16:36.716Z,1018.03
2019-01-02T10:17:46.661Z,1018.08
2019-01-02T10:18:56.342Z,1018.03
2019-01-02T10:20:06.283Z,1018.08
2019-01-02T10:21:16.221Z,1018.09
2019-01-02T10:22:26.181Z,1018.1
2019-01-02T10:23:35.641Z,1018.12
2019-01-02T10:24:45.579Z,1018.15
2019-01-02T10:25:55.512Z,1018.01
2019-01-02T10:27:05.207Z,1018.08
2019-01-02T10:28:15.170Z,1018.14
2019-01-02T10:29:24.854Z,1018.18
2019-01-02T10:30:34.552Z,1018.17
2019-01-02T10:31:44.486Z,1018.24
2019-01-02T10:32:54.683Z,1018.27
2019-01-02T10:34:04.385Z,1018.17
2019-01-02T10:35:14.105Z,1018.18
2019-01-02T10:36:24.057Z,1018.16
2019-01-02T10:37:33.755Z,1018.25
2019-01-02T10:38:43.213Z,1018.23
2019-01-02T10:39:52.898Z,1018.3
2019-01-02T10:41:02.590Z,1018.21
2019-01-02T10:42:12.547Z,1018.29
2019-01-02T10:43:22.484Z,1018.26
2019-01-02T10:44:32.431Z,1018.29
2019-01-02T10:45:42.136Z,1018.35
2019-01-02T10:46:52.080Z,1018.26
2019-01-02T10:48:01.772Z,1018.31
2019-01-02T10:49:11.728Z,1018.36
2019-01-02T10:50:21.673Z,1018.37
2019-01-02T10:51:31.625Z,1018.39
2019-01-02T10:52:41.567Z,1018.4
2019-01-02T10:53:52.107Z,1018.46
2019-01-02T10:55:02.055Z,1018.46
2019-01-02T10:56:12.028Z,1018.5
2019-01-02T10:57:21.964Z,1018.38
2019-01-02T10:58:36.501Z,1018.39
2019-01-02T10:59:46.537Z,1018.45
2019-01-02T11:00:56.493Z,1018.53
2019-01-02T11:02:06.447Z,1018.49
2019-01-02T11:03:16.404Z,1018.53
2019-01-02T11:04:26.356Z,1018.55
2019-01-02T11:05:36.048Z,1018.46
2019-01-02T11:06:45.740Z,1018.56
2019-01-02T11:07:55.703Z,1018.61
2019-01-02T11:09:05.651Z,1018.62
2019-01-02T11:10:15.593Z,1018.61
2019-01-02T11:11:25.035Z,1018.66
2019-01-02T11:12:34.915Z,1018.64
2019-01-02T11:13:44.869Z,1018.67
2019-01-02T11:14:54.560Z,1018.53
2019-01-02T11:16:04.248Z,1018.58
2019-01-02T11:17:14.207Z,1018.65
2019-01-02T11:18:24.729Z,1018.67
2019-01-02T11:19:34.428Z,1018.61
2019-01-02T11:20:44.387Z,1018.61
2019-01-02T11:21:54.321Z,1018.67
2019-01-02T11:23:04.268Z,1018.63
2019-01-02T11:24:13.955Z,1018.71
2019-01-02T11:25:23.905Z,1018.68
2019-01-02T11:26:33.844Z,1018.68
2019-01-02T11:27:43.790Z,1018.74
2019-01-02T11:28:53.739Z,1018.75
2019-01-02T11:30:03.433Z,1018.77
2019-01-02T11:31:13.394Z,1018.71
2019-01-02T11:32:23.088Z,1018.65
2019-01-02T11:33:33.033Z,1018.71
2019-01-02T11:34:43.012Z,1018.68
2019-01-02T11:35:52.966Z,1018.6
2019-01-02T11:37:02.651Z,1018.64
2019-01-02T11:38:12.341Z,1018.77
2019-01-02T11:39:22.285Z,1018.81
2019-01-02T11:40:32.233Z,1018.86
2019-01-02T11:41:42.226Z,1018.86
2019-01-02T11:42:51.920Z,1018.85
2019-01-02T11:44:01.620Z,1018.89
2019-01-02T11:45:11.315Z,1018.72
2019-01-02T11:46:21.273Z,1018.88
2019-01-02T11:47:31.274Z,1018.89
2019-01-02T11:48:41.214Z,1018.87
2019-01-02T11:49:51.160Z,1018.89
2019-01-02T11:51:01.104Z,1018.9
2019-01-02T11:52:11.831Z,1018.96
2019-01-02T11:53:21.792Z,1018.85
2019-01-02T11:54:31.239Z,1018.87
2019-01-02T11:55:41.174Z,1018.94
2019-01-02T11:56:50.860Z,1018.69
2019-01-02T11:58:00.804Z,1018.91
2019-01-02T11:59:10.505Z,1018.99
2019-01-02T12:00:20.460Z,1018.92
2019-01-02T12:01:30.407Z,1018.85
2019-01-02T12:02:39.861Z,1018.78
2019-01-02T12:03:49.807Z,1019.1
2019-01-02T12:04:59.742Z,1018.85
2019-01-02T12:06:09.690Z,1018.98
2019-01-02T12:07:19.631Z,1019.12
2019-01-02T12:08:29.578Z,1019.09
2019-01-02T12:09:39.278Z,1018.99
2019-01-02T12:10:49.219Z,1018.97
2019-01-02T12:11:59.170Z,1019.11
2019-01-02T12:13:09.130Z,1019.22
2019-01-02T12:14:19.088Z,1019.07
2019-01-02T12:15:29.048Z,1019.19
2019-01-02T12:16:38.984Z,1019.13
2019-01-02T12:17:48.924Z,1019.09
2019-01-02T12:18:58.878Z,1019.31
2019-01-02T12:20:08.574Z,1019.31
2019-01-02T12:21:18.516Z,1019.39
2019-01-02T12:22:27.730Z,1019.2
2019-01-02T12:23:37.703Z,1019.18
2019-01-02T12:24:47.681Z,1019.29
2019-01-02T12:25:57.643Z,1019.29
2019-01-02T12:27:07.624Z,1019.28
2019-01-02T12:28:17.329Z,1019.4
2019-01-02T12:29:27.272Z,1019.48
2019-01-02T12:30:36.977Z,1019.47
2019-01-02T12:31:46.943Z,1019.46
2019-01-02T12:32:56.912Z,1019.42
2019-01-02T12:34:07.320Z,1019.5
2019-01-02T12:35:17.014Z,1019.69
2019-01-02T12:36:26.464Z,1019.51
2019-01-02T12:37:36.158Z,1019.44
2019-01-02T12:38:46.118Z,1019.56
2019-01-02T12:39:56.063Z,1019.51
2019-01-02T12:41:06.015Z,1019.57
2019-01-02T12:42:15.729Z,1019.32
2019-01-02T12:43:25.424Z,1019.61
2019-01-02T12:44:35.357Z,1019.59
2019-01-02T12:45:45.064Z,1019.58
2019-01-02T12:46:55.066Z,1019.68
2019-01-02T12:48:05.014Z,1019.62
2019-01-02T12:49:14.958Z,1019.72
2019-01-02T12:50:24.667Z,1019.75
2019-01-02T12:51:34.119Z,1019.87
2019-01-02T12:52:43.818Z,1019.76
2019-01-02T12:53:53.276Z,1019.86
2019-01-02T12:55:03.698Z,1019.77
2019-01-02T12:56:13.446Z,1019.91
2019-01-02T12:57:23.395Z,1019.72
2019-01-02T12:58:33.334Z,1019.83
2019-01-02T12:59:43.062Z,1019.79
2019-01-02T13:00:53.069Z,1019.85
2019-01-02T13:02:03.024Z,1019.69
2019-01-02T13:03:12.995Z,1019.89
2019-01-02T13:04:22.957Z,1019.68
2019-01-02T13:05:33.786Z,1019.77
2019-01-02T13:06:43.339Z,1019.87
2019-01-02T13:07:53.300Z,1019.65
2019-01-02T13:09:03.262Z,1019.9
2019-01-02T13:10:12.722Z,1019.97
2019-01-02T13:11:22.675Z,1020.03
2019-01-02T13:12:32.606Z,1020.02
2019-01-02T13:13:42.547Z,1020.01
2019-01-02T13:14:52.498Z,1019.99
2019-01-02T13:16:02.459Z,1020.06
2019-01-02T13:17:12.156Z,1019.98
2019-01-02T13:18:21.606Z,1019.92
2019-01-02T13:19:31.566Z,1019.91
2019-01-02T13:20:41.512Z,1019.96
2019-01-02T13:21:51.222Z,1020.09
2019-01-02T13:23:00.916Z,1020.06
2019-01-02T13:24:10.115Z,1020.1
2019-01-02T13:25:20.080Z,1020.07
2019-01-02T13:26:30.038Z,1020.06
2019-01-02T13:27:39.980Z,1020.14
2019-01-02T13:28:49.427Z,1020.02
2019-01-02T13:29:59.393Z,1020.15
2019-01-02T13:31:09.329Z,1019.83
2019-01-02T13:32:19.266Z,1020.14
2019-01-02T13:33:28.717Z,1019.99
2019-01-02T13:34:38.666Z,1020.27
2019-01-02T13:35:48.638Z,1020.19
2019-01-02T13:36:58.328Z,1020.25
2019-01-02T13:38:07.791Z,1020.16
2019-01-02T13:39:17.774Z,1020.29
2019-01-02T13:40:27.464Z,1020.23
2019-01-02T13:41:37.161Z,1020.35
2019-01-02T13:42:47.120Z,1020.29
2019-01-02T13:43:57.065Z,1020.29
2019-01-02T13:45:06.527Z,1020.38
2019-01-02T13:46:16.229Z,1020.41
2019-01-02T13:47:26.163Z,1020.35
2019-01-02T13:48:36.096Z,1020.38
2019-01-02T13:49:46.056Z,1020.42
2019-01-02T13:50:56.034Z,1020.32
2019-01-02T13:52:06.872Z,1020.39
2019-01-02T13:53:16.819Z,1020.49
2019-01-02T13:54:26.770Z,1020.49
2019-01-02T13:55:36.716Z,1020.46
2019-01-02T13:56:46.659Z,1020.51
2019-01-02T13:57:56.608Z,1020.47
2019-01-02T13:59:06.054Z,1020.46
2019-01-02T14:00:15.766Z,1020.37
2019-01-02T14:01:25.740Z,1020.55
2019-01-02T14:02:35.684Z,1020.54
2019-01-02T14:03:45.651Z,1020.57
2019-01-02T14:04:55.596Z,1020.53
2019-01-02T14:06:05.088Z,1020.52
2019-01-02T14:07:15.048Z,1020.62
2019-01-02T14:08:25.002Z,1020.52